Time;durP1;ratioP1;P1;durP2;ratioP2;P2;SDS_P1;SDS_P2;PMS_P1;PMS_P2;Temp;Humidity;BMP_temperature;BMP_pressure;BME280_temperature;BME280_humidity;BME280_pressure;Samples;Min_cycle;Max_cycle;Signal;HPM_P1;HPM_P2
2023/09/03 00:00:29;;;;;;;8.75;5.60;;;;;;;;;;5011531;27;94931;-60
2023/09/03 00:02:56;;;;;;;7.88;5.25;;;;;;;;;;5013417;27;95527;-60
2023/09/03 00:05:22;;;;;;;11.85;5.68;;;;;;;;;;5013267;27;92469;-59
2023/09/03 00:07:49;;;;;;;11.80;5.47;;;;;;;;;;5013386;27;92507;-60
2023/09/03 00:10:16;;;;;;;9.25;6.03;;;;;;;;;;5020487;27;93630;-60
2023/09/03 00:12:42;;;;;;;8.23;6.20;;;;;;;;;;5013175;27;93482;-60
2023/09/03 00:15:09;;;;;;;8.20;5.90;;;;;;;;;;5021035;27;92614;-60
2023/09/03 00:17:35;;;;;;;8.13;5.15;;;;;;;;;;5018391;27;94138;-60
2023/09/03 00:20:02;;;;;;;10.82;6.07;;;;;;;;;;5016009;27;93731;-60
2023/09/03 00:22:28;;;;;;;8.85;5.82;;;;;;;;;;5012694;27;93125;-60
2023/09/03 00:24:55;;;;;;;8.02;5.82;;;;;;;;;;5010422;27;95795;-59
2023/09/03 00:27:21;;;;;;;11.80;6.97;;;;;;;;;;5011840;27;92725;-60
2023/09/03 00:29:48;;;;;;;11.80;6.97;;;;;;;;;;5013280;27;94394;-60
2023/09/03 00:32:14;;;;;;;10.05;5.82;;;;;;;;;;5013103;27;94384;-60
2023/09/03 00:34:40;;;;;;;16.35;7.53;;;;;;;;;;5016914;27;92716;-60
2023/09/03 00:37:07;;;;;;;11.40;6.82;;;;;;;;;;5025754;28;94956;-59
2023/09/03 00:39:33;;;;;;;7.15;5.93;;;;;;;;;;5012848;27;94500;-59
2023/09/03 00:41:59;;;;;;;6.50;5.55;;;;;;;;;;5020342;27;91809;-59
2023/09/03 00:44:26;;;;;;;6.32;5.70;;;;;;;;;;5011879;27;93372;-60
2023/09/03 00:46:52;;;;;;;6.35;5.22;;;;;;;;;;5016879;27;96223;-59
2023/09/03 00:49:23;;;;;;;9.00;5.35;;;;;;;;;;5015557;27;95359;-60
2023/09/03 00:51:49;;;;;;;;;;;;;;;;;;5013122;27;93664;-59
2023/09/03 00:54:15;;;;;;;10.02;5.28;;;;;;;;;;5013157;27;118405;-60
2023/09/03 00:56:42;;;;;;;7.15;5.55;;;;;;;;;;5012825;27;93147;-59
2023/09/03 00:59:08;;;;;;;9.95;5.45;;;;;;;;;;5012781;27;94367;-60
2023/09/03 01:01:36;;;;;;;5.35;4.85;;;;;;;;;;5012753;27;92476;-59
2023/09/03 01:04:02;;;;;;;11.18;5.57;;;;;;;;;;5019431;27;94147;-59
2023/09/03 01:06:29;;;;;;;9.75;5.03;;;;;;;;;;5013199;27;91876;-59
2023/09/03 01:08:55;;;;;;;7.57;5.07;;;;;;;;;;5016591;27;93384;-60
2023/09/03 01:11:24;;;;;;;10.52;5.45;;;;;;;;;;5019548;27;94523;-59
2023/09/03 01:14:00;;;;;;;9.27;6.07;;;;;;;;;;5011030;27;94986;-59
2023/09/03 01:16:34;;;;;;;16.13;5.43;;;;;;;;;;5015784;27;95528;-59
2023/09/03 01:19:01;;;;;;;11.57;5.63;;;;;;;;;;5012238;27;93414;-60
2023/09/03 01:21:38;;;;;;;6.28;5.28;;;;;;;;;;5015818;27;92460;-59
2023/09/03 01:24:22;;;;;;;9.77;4.85;;;;;;;;;;5016620;27;93271;-59
2023/09/03 01:27:14;;;;;;;11.52;5.47;;;;;;;;;;5014286;27;93087;-60
2023/09/03 01:29:42;;;;;;;8.48;5.68;;;;;;;;;;5016019;27;93114;-60
2023/09/03 01:32:09;;;;;;;8.15;6.47;;;;;;;;;;5016594;27;93720;-60
2023/09/03 01:34:36;;;;;;;11.00;5.65;;;;;;;;;;5010981;27;92503;-60
2023/09/03 01:37:03;;;;;;;7.55;6.30;;;;;;;;;;5012398;27;92995;-60
2023/09/03 01:39:30;;;;;;;8.73;6.32;;;;;;;;;;5014255;27;96833;-60
2023/09/03 01:41:56;;;;;;;7.40;5.57;;;;;;;;;;5015503;27;92453;-60
2023/09/03 01:44:23;;;;;;;8.27;5.32;;;;;;;;;;5018574;27;93019;-60
2023/09/03 01:46:50;;;;;;;6.88;4.75;;;;;;;;;;5034987;27;93706;-60
2023/09/03 01:49:41;;;;;;;5.93;5.28;;;;;;;;;;5023303;27;92468;-60
2023/09/03 01:52:07;;;;;;;11.90;5.60;;;;;;;;;;5014829;27;93572;-60
2023/09/03 01:54:37;;;;;;;7.93;4.57;;;;;;;;;;5014747;27;92607;-60
2023/09/03 01:57:06;;;;;;;6.13;5.20;;;;;;;;;;5016599;27;94624;-60
2023/09/03 01:59:33;;;;;;;9.38;5.65;;;;;;;;;;5017076;27;94484;-60
2023/09/03 02:01:59;;;;;;;5.93;5.28;;;;;;;;;;5019076;27;92466;-60
2023/09/03 02:04:26;;;;;;;6.82;5.53;;;;;;;;;;5018299;27;95005;-60
2023/09/03 02:06:52;;;;;;;7.85;5.25;;;;;;;;;;5014052;27;94617;-61
2023/09/03 02:09:18;;;;;;;10.40;5.75;;;;;;;;;;5021044;27;92704;-60
2023/09/03 02:11:45;;;;;;;8.43;4.70;;;;;;;;;;5019964;28;95307;-60
2023/09/03 02:14:11;;;;;;;6.07;4.88;;;;;;;;;;5015264;27;92463;-60
2023/09/03 02:16:38;;;;;;;5.47;4.97;;;;;;;;;;5019152;27;94148;-60
2023/09/03 02:19:04;;;;;;;8.45;5.40;;;;;;;;;;5014260;27;93485;-60
2023/09/03 02:21:30;;;;;;;9.27;5.32;;;;;;;;;;5019396;27;93479;-60
2023/09/03 02:23:57;;;;;;;6.28;5.05;;;;;;;;;;5017831;27;92649;-60
2023/09/03 02:26:23;;;;;;;7.18;5.50;;;;;;;;;;5014429;27;93451;-60
2023/09/03 02:28:50;;;;;;;18.58;5.85;;;;;;;;;;5012962;27;95355;-60
2023/09/03 02:31:16;;;;;;;9.13;5.82;;;;;;;;;;5017956;27;95572;-59
2023/09/03 02:33:42;;;;;;;9.02;6.30;;;;;;;;;;5014990;27;92473;-60
2023/09/03 02:36:09;;;;;;;8.65;5.72;;;;;;;;;;5014464;27;93359;-60
2023/09/03 02:38:35;;;;;;;5.53;5.03;;;;;;;;;;5014999;27;93426;-59
2023/09/03 02:41:01;;;;;;;6.28;5.00;;;;;;;;;;5017878;27;92629;-60
2023/09/03 02:43:28;;;;;;;5.65;5.05;;;;;;;;;;5014580;27;92572;-59
2023/09/03 02:45:54;;;;;;;7.15;5.53;;;;;;;;;;5015144;27;93849;-60
2023/09/03 02:48:20;;;;;;;11.23;6.25;;;;;;;;;;5021689;27;92591;-60
2023/09/03 02:50:47;;;;;;;6.93;5.20;;;;;;;;;;5018607;27;93154;-60
2023/09/03 02:53:14;;;;;;;7.30;5.38;;;;;;;;;;5015645;27;96436;-60
2023/09/03 02:55:40;;;;;;;7.45;5.38;;;;;;;;;;5014251;27;96444;-60
2023/09/03 02:58:07;;;;;;;9.10;5.45;;;;;;;;;;5013263;27;93417;-60
2023/09/03 03:00:33;;;;;;;6.47;4.57;;;;;;;;;;5018975;27;93090;-60
2023/09/03 03:03:00;;;;;;;15.20;4.40;;;;;;;;;;5013626;27;93481;-59
2023/09/03 03:05:27;;;;;;;8.75;4.63;;;;;;;;;;5018623;27;94477;-60
2023/09/03 03:07:55;;;;;;;12.27;5.22;;;;;;;;;;5013917;27;92492;-60
2023/09/03 03:10:22;;;;;;;9.90;5.22;;;;;;;;;;5021826;27;93127;-60
2023/09/03 03:12:48;;;;;;;9.18;5.40;;;;;;;;;;5013933;27;92808;-60
2023/09/03 03:15:14;;;;;;;12.20;5.20;;;;;;;;;;5020958;27;92518;-59
2023/09/03 03:17:41;;;;;;;10.02;5.63;;;;;;;;;;5015381;27;95725;-59
2023/09/03 03:20:07;;;;;;;11.95;5.53;;;;;;;;;;5017560;27;92788;-59
2023/09/03 03:22:34;;;;;;;10.77;5.13;;;;;;;;;;5013823;27;93652;-60
2023/09/03 03:25:00;;;;;;;5.30;4.68;;;;;;;;;;5013744;27;92394;-60
2023/09/03 03:27:27;;;;;;;5.38;4.75;;;;;;;;;;5017829;27;92445;-60
2023/09/03 03:29:53;;;;;;;11.18;5.03;;;;;;;;;;5014745;27;94327;-61
2023/09/03 03:32:19;;;;;;;8.27;5.15;;;;;;;;;;5013718;27;93450;-60
2023/09/03 03:34:46;;;;;;;6.75;5.93;;;;;;;;;;5013971;27;91808;-60
2023/09/03 03:37:12;;;;;;;9.75;5.28;;;;;;;;;;5016246;27;92563;-60
2023/09/03 03:39:39;;;;;;;7.13;5.55;;;;;;;;;;5018155;27;92476;-60
2023/09/03 03:42:05;;;;;;;6.53;5.18;;;;;;;;;;5012274;27;94864;-60
2023/09/03 03:44:32;;;;;;;5.88;5.28;;;;;;;;;;5012531;27;93410;-60
2023/09/03 03:46:58;;;;;;;12.90;6.05;;;;;;;;;;5017333;27;92816;-61
2023/09/03 03:49:24;;;;;;;10.35;6.22;;;;;;;;;;5013692;27;94264;-61
2023/09/03 03:51:51;;;;;;;6.72;5.03;;;;;;;;;;5017222;27;93448;-61
2023/09/03 03:54:17;;;;;;;9.45;5.35;;;;;;;;;;5017079;27;92855;-61
2023/09/03 03:56:44;;;;;;;8.00;5.13;;;;;;;;;;5017256;28;96499;-61
2023/09/03 03:59:10;;;;;;;11.38;5.78;;;;;;;;;;5018113;27;93074;-60
2023/09/03 04:01:37;;;;;;;8.38;5.90;;;;;;;;;;5019420;27;92634;-61
2023/09/03 04:04:04;;;;;;;11.18;5.60;;;;;;;;;;5021849;27;93950;-61
2023/09/03 04:06:31;;;;;;;7.55;5.97;;;;;;;;;;5015650;27;95188;-60
2023/09/03 04:08:57;;;;;;;8.93;6.13;;;;;;;;;;5016916;27;95466;-60
2023/09/03 04:11:24;;;;;;;7.72;5.93;;;;;;;;;;5016460;27;97472;-60
2023/09/03 04:13:51;;;;;;;8.35;5.63;;;;;;;;;;5016258;27;92540;-60
2023/09/03 04:16:20;;;;;;;7.18;5.30;;;;;;;;;;5021030;27;93005;-60
2023/09/03 04:18:46;;;;;;;8.35;5.47;;;;;;;;;;5017099;27;93265;-60
2023/09/03 04:21:13;;;;;;;8.27;6.15;;;;;;;;;;5012656;27;93954;-60
2023/09/03 04:23:39;;;;;;;8.43;6.07;;;;;;;;;;5018101;27;92649;-60
2023/09/03 04:26:06;;;;;;;6.97;6.20;;;;;;;;;;5019985;27;92579;-61
2023/09/03 04:28:33;;;;;;;12.95;6.03;;;;;;;;;;5016779;27;92578;-60
2023/09/03 04:31:00;;;;;;;8.20;6.70;;;;;;;;;;5019095;27;96952;-60
2023/09/03 04:33:27;;;;;;;9.23;5.75;;;;;;;;;;5013409;27;92441;-60
2023/09/03 04:35:55;;;;;;;9.63;5.53;;;;;;;;;;5013260;27;93418;-61
2023/09/03 04:38:21;;;;;;;8.02;5.63;;;;;;;;;;5012805;27;92524;-61
2023/09/03 04:40:47;;;;;;;7.68;5.30;;;;;;;;;;5014272;27;92516;-61
2023/09/03 04:43:14;;;;;;;9.43;5.40;;;;;;;;;;5016004;27;94474;-60
2023/09/03 04:45:46;;;;;;;11.63;5.70;;;;;;;;;;5011157;27;92962;-61
2023/09/03 04:48:13;;;;;;;9.10;5.50;;;;;;;;;;5013729;27;93185;-60
2023/09/03 04:50:40;;;;;;;10.40;5.78;;;;;;;;;;5012075;27;94417;-60
2023/09/03 04:53:07;;;;;;;9.13;5.78;;;;;;;;;;5012853;27;92671;-60
2023/09/03 04:55:33;;;;;;;7.25;5.55;;;;;;;;;;5010917;27;94989;-60
2023/09/03 04:58:00;;;;;;;10.18;5.78;;;;;;;;;;5012077;27;93412;-60
2023/09/03 05:00:30;;;;;;;7.53;5.60;;;;;;;;;;5013126;27;92430;-60
2023/09/03 05:02:57;;;;;;;;;;;;;;;;;;5016171;27;93162;-60
2023/09/03 05:05:26;;;;;;;8.05;5.00;;;;;;;;;;5017193;27;117177;-61
2023/09/03 05:07:52;;;;;;;9.43;6.82;;;;;;;;;;5016699;27;93086;-61
2023/09/03 05:10:18;;;;;;;11.60;5.40;;;;;;;;;;5020471;27;94795;-60
2023/09/03 05:12:45;;;;;;;15.10;6.10;;;;;;;;;;5014083;27;91725;-61
2023/09/03 05:15:11;;;;;;;16.58;6.10;;;;;;;;;;5015090;27;94583;-60
2023/09/03 05:17:38;;;;;;;8.45;6.07;;;;;;;;;;5016485;27;93317;-60
2023/09/03 05:20:05;;;;;;;11.23;6.35;;;;;;;;;;5013690;27;95062;-61
2023/09/03 05:22:31;;;;;;;10.30;6.00;;;;;;;;;;5015382;27;95818;-60
2023/09/03 05:24:58;;;;;;;8.18;5.43;;;;;;;;;;5018748;27;93413;-60
2023/09/03 05:27:24;;;;;;;14.63;5.32;;;;;;;;;;5015324;27;94245;-61
2023/09/03 05:29:50;;;;;;;11.82;6.47;;;;;;;;;;5015114;27;94397;-61
2023/09/03 05:32:17;;;;;;;7.57;5.28;;;;;;;;;;5014734;27;92359;-60
2023/09/03 05:34:43;;;;;;;9.25;5.97;;;;;;;;;;5019812;27;94114;-60
2023/09/03 05:37:09;;;;;;;9.30;5.72;;;;;;;;;;5015583;27;92683;-60
2023/09/03 05:39:36;;;;;;;10.48;6.00;;;;;;;;;;5015092;27;92444;-60
2023/09/03 05:42:02;;;;;;;8.25;6.00;;;;;;;;;;5019384;27;93449;-60
2023/09/03 05:44:29;;;;;;;8.25;6.07;;;;;;;;;;5020451;27;95725;-60
2023/09/03 05:46:55;;;;;;;13.95;5.95;;;;;;;;;;5019482;27;92443;-60
2023/09/03 05:49:21;;;;;;;10.55;6.05;;;;;;;;;;5014293;27;93385;-60
2023/09/03 05:51:48;;;;;;;7.13;5.78;;;;;;;;;;5014978;27;92496;-60
2023/09/03 05:54:14;;;;;;;8.10;6.05;;;;;;;;;;5014578;27;93279;-60
2023/09/03 05:56:41;;;;;;;7.20;5.88;;;;;;;;;;5014815;27;92944;-60
2023/09/03 05:59:10;;;;;;;7.78;5.65;;;;;;;;;;5014464;27;92425;-60
2023/09/03 06:01:36;;;;;;;8.45;6.03;;;;;;;;;;5016149;27;93140;-60
2023/09/03 06:04:05;;;;;;;23.08;6.03;;;;;;;;;;5022469;27;93983;-60
2023/09/03 06:06:38;;;;;;;11.98;5.75;;;;;;;;;;5018318;27;92429;-60
2023/09/03 06:09:05;;;;;;;12.82;5.63;;;;;;;;;;5016172;27;94821;-60
2023/09/03 06:11:32;;;;;;;17.27;7.38;;;;;;;;;;5014493;27;92464;-60
2023/09/03 06:13:58;;;;;;;13.57;6.78;;;;;;;;;;5014127;27;94197;-60
2023/09/03 06:16:25;;;;;;;12.00;6.30;;;;;;;;;;5014899;27;93396;-59
2023/09/03 06:18:52;;;;;;;12.40;5.70;;;;;;;;;;5014433;27;92537;-60
2023/09/03 06:21:18;;;;;;;9.05;6.00;;;;;;;;;;5014439;27;94373;-59
2023/09/03 06:23:45;;;;;;;9.60;6.28;;;;;;;;;;5014739;27;96463;-60
2023/09/03 06:26:11;;;;;;;10.27;6.28;;;;;;;;;;5015368;27;91879;-60
2023/09/03 06:28:38;;;;;;;12.63;6.10;;;;;;;;;;5017237;27;92599;-60
2023/09/03 06:31:04;;;;;;;7.63;6.20;;;;;;;;;;5014259;27;92429;-59
2023/09/03 06:33:32;;;;;;;9.43;6.00;;;;;;;;;;5013070;27;94936;-59
2023/09/03 06:35:58;;;;;;;13.07;7.25;;;;;;;;;;5014128;27;93401;-60
2023/09/03 06:38:25;;;;;;;10.18;7.15;;;;;;;;;;5013857;27;92500;-59
2023/09/03 06:40:51;;;;;;;13.82;8.40;;;;;;;;;;5014124;27;93401;-60
2023/09/03 06:43:18;;;;;;;12.13;8.20;;;;;;;;;;5013526;27;93310;-60
2023/09/03 06:45:45;;;;;;;12.05;8.07;;;;;;;;;;5018972;27;92691;-60
2023/09/03 06:48:12;;;;;;;11.07;8.25;;;;;;;;;;5016069;27;94206;-59
2023/09/03 06:50:44;;;;;;;13.75;8.32;;;;;;;;;;5025624;27;92731;-61
2023/09/03 06:53:11;;;;;;;14.77;8.25;;;;;;;;;;5014307;27;92597;-61
2023/09/03 06:55:37;;;;;;;10.93;7.82;;;;;;;;;;5026192;27;93394;-60
2023/09/03 06:58:04;;;;;;;12.25;7.75;;;;;;;;;;5016470;27;94827;-60
2023/09/03 07:00:34;;;;;;;9.05;8.13;;;;;;;;;;5013687;27;96766;-60
2023/09/03 07:03:00;;;;;;;11.75;8.50;;;;;;;;;;5013067;27;93577;-60
2023/09/03 07:05:27;;;;;;;14.77;8.95;;;;;;;;;;5018596;27;92514;-60
2023/09/03 07:07:54;;;;;;;16.25;9.30;;;;;;;;;;5016298;27;93314;-61
2023/09/03 07:10:20;;;;;;;11.68;8.55;;;;;;;;;;5014985;27;93427;-60
2023/09/03 07:12:46;;;;;;;13.38;8.95;;;;;;;;;;5017833;27;92575;-60
2023/09/03 07:15:13;;;;;;;12.88;8.93;;;;;;;;;;5013811;27;92688;-60
2023/09/03 07:17:39;;;;;;;11.05;9.15;;;;;;;;;;5015049;27;92573;-60
2023/09/03 07:20:06;;;;;;;9.57;8.40;;;;;;;;;;5013639;27;93090;-60
2023/09/03 07:22:32;;;;;;;11.60;9.43;;;;;;;;;;5011203;27;95728;-60
2023/09/03 07:24:59;;;;;;;11.25;9.20;;;;;;;;;;5017864;27;92554;-61
2023/09/03 07:27:25;;;;;;;12.73;9.90;;;;;;;;;;5012902;27;93105;-60
2023/09/03 07:29:52;;;;;;;20.40;9.57;;;;;;;;;;5012877;27;93709;-60
2023/09/03 07:32:21;;;;;;;25.08;9.85;;;;;;;;;;5017598;27;92455;-61
2023/09/03 07:34:49;;;;;;;13.00;9.57;;;;;;;;;;5016245;27;93084;-61
2023/09/03 07:37:17;;;;;;;15.20;9.70;;;;;;;;;;5013455;27;92547;-61
2023/09/03 07:39:45;;;;;;;14.82;10.00;;;;;;;;;;5014251;27;93149;-61
2023/09/03 07:42:11;;;;;;;19.33;10.02;;;;;;;;;;5016646;27;93817;-60
2023/09/03 07:44:37;;;;;;;12.98;10.07;;;;;;;;;;5020865;27;95949;-60
2023/09/03 07:47:04;;;;;;;18.10;10.70;;;;;;;;;;5015327;27;94890;-60
2023/09/03 07:49:30;;;;;;;17.90;11.23;;;;;;;;;;5012214;27;93498;-60
2023/09/03 07:51:57;;;;;;;17.27;11.25;;;;;;;;;;5011776;27;92522;-61
2023/09/03 07:54:23;;;;;;;23.33;11.20;;;;;;;;;;5017203;27;93103;-60
2023/09/03 07:56:52;;;;;;;15.38;10.90;;;;;;;;;;5015643;27;93393;-61
2023/09/03 07:59:19;;;;;;;16.95;12.05;;;;;;;;;;5012205;27;92676;-60
2023/09/03 08:01:46;;;;;;;16.38;11.75;;;;;;;;;;5020658;27;93346;-61
2023/09/03 08:04:12;;;;;;;17.83;12.73;;;;;;;;;;5011741;27;91834;-61
2023/09/03 08:06:39;;;;;;;17.17;11.68;;;;;;;;;;5012594;27;92606;-60
2023/09/03 08:09:06;;;;;;;23.73;12.27;;;;;;;;;;5012341;27;93439;-61
2023/09/03 08:11:32;;;;;;;25.33;13.15;;;;;;;;;;5015165;27;95226;-61
2023/09/03 08:13:59;;;;;;;13.50;11.07;;;;;;;;;;5020163;27;95539;-61
2023/09/03 08:16:26;;;;;;;14.52;11.43;;;;;;;;;;5016673;27;93487;-61
2023/09/03 08:18:52;;;;;;;18.15;11.45;;;;;;;;;;5016358;27;92486;-61
2023/09/03 08:21:19;;;;;;;21.02;12.38;;;;;;;;;;5011123;28;95671;-60
2023/09/03 08:23:45;;;;;;;23.10;12.30;;;;;;;;;;5011853;27;92813;-60
2023/09/03 08:26:12;;;;;;;21.75;12.52;;;;;;;;;;5011765;27;93163;-61
2023/09/03 08:28:38;;;;;;;17.40;12.20;;;;;;;;;;5012127;27;92607;-60
2023/09/03 08:31:05;;;;;;;16.50;12.18;;;;;;;;;;5016330;27;92363;-61
2023/09/03 08:33:33;;;;;;;19.23;12.57;;;;;;;;;;5012109;27;93290;-60
2023/09/03 08:35:59;;;;;;;17.20;12.43;;;;;;;;;;5013583;28;98178;-61
2023/09/03 08:38:26;;;;;;;19.73;11.68;;;;;;;;;;5021822;27;92428;-60
2023/09/03 08:40:52;;;;;;;15.23;12.27;;;;;;;;;;5017333;27;93410;-60
2023/09/03 08:43:20;;;;;;;16.40;11.60;;;;;;;;;;5010496;27;92608;-61
2023/09/03 08:45:53;;;;;;;24.10;11.93;;;;;;;;;;5011341;27;93639;-61
2023/09/03 08:48:19;;;;;;;17.27;11.93;;;;;;;;;;5016901;27;93488;-60
2023/09/03 08:50:46;;;;;;;21.60;11.45;;;;;;;;;;5015368;27;92606;-60
2023/09/03 08:53:13;;;;;;;13.23;10.82;;;;;;;;;;5015566;27;93322;-60
2023/09/03 08:55:40;;;;;;;16.02;9.77;;;;;;;;;;5014303;27;93808;-61
2023/09/03 08:58:06;;;;;;;15.57;8.90;;;;;;;;;;5016207;27;92428;-61
2023/09/03 09:00:33;;;;;;;21.27;10.35;;;;;;;;;;5017395;27;94758;-60
2023/09/03 09:03:00;;;;;;;14.32;9.85;;;;;;;;;;5014634;27;92986;-61
2023/09/03 09:05:27;;;;;;;13.15;9.75;;;;;;;;;;5020166;27;92590;-60
2023/09/03 09:07:54;;;;;;;14.98;9.70;;;;;;;;;;5015264;27;93411;-60
2023/09/03 09:10:22;;;;;;;17.58;10.60;;;;;;;;;;5022934;27;92695;-60
2023/09/03 09:12:56;;;;;;;10.98;5.57;;;;;;;;;;5020966;27;93535;-61
2023/09/03 09:15:22;;;;;;;13.55;5.82;;;;;;;;;;5017190;27;94546;-60
2023/09/03 09:17:49;;;;;;;13.80;5.90;;;;;;;;;;5020150;27;91976;-61
2023/09/03 09:20:17;;;;;;;16.00;6.50;;;;;;;;;;5015482;27;92526;-61
2023/09/03 09:22:45;;;;;;;7.40;4.72;;;;;;;;;;5021432;27;92439;-60
2023/09/03 09:25:21;;;;;;;7.22;4.40;;;;;;;;;;5014572;27;95054;-61
2023/09/03 09:27:48;;;;;;;15.80;5.30;;;;;;;;;;5015717;27;93649;-60
2023/09/03 09:30:16;;;;;;;8.07;5.80;;;;;;;;;;5019519;27;92445;-61
2023/09/03 09:32:43;;;;;;;5.32;4.90;;;;;;;;;;5019560;27;93262;-60
2023/09/03 09:35:10;;;;;;;8.68;4.50;;;;;;;;;;5015200;27;94704;-61
2023/09/03 09:37:41;;;;;;;4.78;3.08;;;;;;;;;;5015069;27;92656;-60
2023/09/03 09:40:08;;;;;;;9.15;4.32;;;;;;;;;;5015892;27;92580;-60
2023/09/03 09:42:35;;;;;;;6.85;4.85;;;;;;;;;;5015021;27;92541;-61
2023/09/03 09:45:02;;;;;;;8.23;5.30;;;;;;;;;;5016872;27;92563;-61
2023/09/03 09:47:28;;;;;;;8.57;4.35;;;;;;;;;;5018836;27;94355;-61
2023/09/03 09:49:55;;;;;;;7.15;3.97;;;;;;;;;;5018154;27;94817;-61
2023/09/03 09:52:21;;;;;;;6.03;4.38;;;;;;;;;;5013150;27;95807;-61
2023/09/03 09:54:48;;;;;;;6.90;4.55;;;;;;;;;;5013889;27;93376;-60
2023/09/03 09:57:15;;;;;;;6.90;4.20;;;;;;;;;;5014184;27;92466;-60
2023/09/03 09:59:42;;;;;;;4.55;4.03;;;;;;;;;;5017509;27;92370;-60
2023/09/03 10:02:15;;;;;;;3.80;3.50;;;;;;;;;;5014164;27;94510;-61
2023/09/03 10:04:43;;;;;;;6.97;3.22;;;;;;;;;;5014017;27;92385;-61
2023/09/03 10:07:09;;;;;;;3.78;3.47;;;;;;;;;;5017690;27;94183;-61
2023/09/03 10:09:36;;;;;;;7.45;3.63;;;;;;;;;;5014258;27;92541;-61
2023/09/03 10:12:06;;;;;;;6.05;3.20;;;;;;;;;;5022157;27;93711;-60
2023/09/03 10:14:33;;;;;;;4.72;3.90;;;;;;;;;;5015699;27;96858;-60
2023/09/03 10:17:00;;;;;;;9.60;4.10;;;;;;;;;;5017677;27;93028;-61
2023/09/03 10:19:49;;;;;;;5.82;4.30;;;;;;;;;;5013432;27;94079;-60
2023/09/03 10:22:18;;;;;;;6.97;3.90;;;;;;;;;;5007071;27;92599;-60
2023/09/03 10:24:58;;;;;;;6.35;3.63;;;;;;;;;;5013586;27;92961;-60
2023/09/03 10:27:26;;;;;;;7.45;4.28;;;;;;;;;;5020279;27;93130;-60
2023/09/03 10:29:55;;;;;;;9.13;4.35;;;;;;;;;;5014642;27;92576;-60
2023/09/03 10:32:21;;;;;;;7.53;4.22;;;;;;;;;;5013691;27;94313;-60
2023/09/03 10:34:48;;;;;;;7.13;4.63;;;;;;;;;;5012573;27;93431;-60
2023/09/03 10:37:14;;;;;;;6.53;4.53;;;;;;;;;;5013760;27;92384;-60
2023/09/03 10:39:43;;;;;;;5.68;4.68;;;;;;;;;;5011708;27;95430;-60
2023/09/03 10:42:18;;;;;;;7.03;5.03;;;;;;;;;;5017752;27;92690;-60
2023/09/03 10:44:49;;;;;;;7.70;5.13;;;;;;;;;;4982741;27;1136812;-60
2023/09/03 10:47:19;;;;;;;11.13;5.10;;;;;;;;;;5018502;27;93168;-60
2023/09/03 10:49:47;;;;;;;11.30;5.80;;;;;;;;;;5020469;27;94670;-60
2023/09/03 10:52:25;;;;;;;7.88;5.43;;;;;;;;;;5013776;27;93939;-60
2023/09/03 10:55:12;;;;;;;6.00;5.10;;;;;;;;;;5013880;27;94390;-60
2023/09/03 10:57:39;;;;;;;5.85;5.15;;;;;;;;;;5003441;27;91840;-60
2023/09/03 11:00:06;;;;;;;6.20;5.55;;;;;;;;;;5014580;27;92511;-60
2023/09/03 11:02:34;;;;;;;6.32;5.45;;;;;;;;;;5013628;27;93095;-60
2023/09/03 11:05:14;;;;;;;5.55;4.78;;;;;;;;;;5012726;27;94833;-60
2023/09/03 11:07:41;;;;;;;4.32;3.85;;;;;;;;;;5014895;27;96715;-60
2023/09/03 11:10:24;;;;;;;7.70;4.20;;;;;;;;;;5013094;27;93430;-60
2023/09/03 11:12:52;;;;;;;8.63;3.80;;;;;;;;;;5017054;27;93490;-60
2023/09/03 11:15:18;;;;;;;7.75;3.53;;;;;;;;;;5016799;27;93432;-60
2023/09/03 11:17:51;;;;;;;4.15;3.72;;;;;;;;;;5031179;27;94972;-60
2023/09/03 11:20:30;;;;;;;9.50;3.25;;;;;;;;;;5013541;27;93134;-60
2023/09/03 11:23:16;;;;;;;7.05;3.60;;;;;;;;;;5015041;27;92540;-60
2023/09/03 11:25:43;;;;;;;4.63;2.97;;;;;;;;;;5017977;27;92408;-60
2023/09/03 11:28:12;;;;;;;4.18;3.78;;;;;;;;;;5017769;27;93100;-60
2023/09/03 11:30:39;;;;;;;9.88;3.97;;;;;;;;;;5011683;27;96078;-60
2023/09/03 11:33:08;;;;;;;3.72;3.28;;;;;;;;;;5028399;28;96579;-60
2023/09/03 11:35:39;;;;;;;4.75;3.08;;;;;;;;;;5016811;27;93155;-60
2023/09/03 11:38:07;;;;;;;6.57;3.13;;;;;;;;;;5013936;27;93282;-60
2023/09/03 11:40:33;;;;;;;4.35;2.65;;;;;;;;;;5013229;27;93142;-60
2023/09/03 11:43:01;;;;;;;3.85;2.83;;;;;;;;;;5013462;27;93836;-60
2023/09/03 11:45:33;;;;;;;3.22;2.28;;;;;;;;;;5013432;27;92394;-60
2023/09/03 11:48:00;;;;;;;8.32;3.45;;;;;;;;;;5020611;27;93057;-60
2023/09/03 11:50:26;;;;;;;4.03;2.75;;;;;;;;;;5013757;27;94580;-60
2023/09/03 11:52:56;;;;;;;3.80;3.05;;;;;;;;;;5013005;27;92560;-60
2023/09/03 11:55:25;;;;;;;5.00;2.80;;;;;;;;;;5012137;27;94784;-60
2023/09/03 11:57:52;;;;;;;5.90;2.90;;;;;;;;;;5016641;27;93545;-60
2023/09/03 12:00:20;;;;;;;4.60;2.83;;;;;;;;;;5013480;27;93169;-60
2023/09/03 12:02:47;;;;;;;7.40;2.63;;;;;;;;;;5033171;27;93777;-60
2023/09/03 12:05:13;;;;;;;4.93;2.22;;;;;;;;;;5013170;27;92984;-60
2023/09/03 12:07:40;;;;;;;2.83;2.20;;;;;;;;;;5013211;27;93446;-60
2023/09/03 12:10:07;;;;;;;7.97;2.95;;;;;;;;;;5012540;27;94499;-60
2023/09/03 12:12:34;;;;;;;6.30;2.33;;;;;;;;;;5013649;27;91713;-60
2023/09/03 12:15:00;;;;;;;3.20;2.45;;;;;;;;;;5012740;27;93437;-60
2023/09/03 12:17:27;;;;;;;2.00;1.80;;;;;;;;;;5015552;27;93366;-60
2023/09/03 12:19:54;;;;;;;2.00;1.90;;;;;;;;;;5013962;27;95112;-60
2023/09/03 12:22:23;;;;;;;3.50;1.83;;;;;;;;;;5013335;27;94333;-60
2023/09/03 12:24:50;;;;;;;3.40;1.75;;;;;;;;;;5012801;27;92824;-60
2023/09/03 12:27:16;;;;;;;5.15;1.65;;;;;;;;;;5012338;27;93165;-60
2023/09/03 12:29:42;;;;;;;1.92;1.73;;;;;;;;;;5017436;27;93357;-60
2023/09/03 12:32:18;;;;;;;3.50;1.50;;;;;;;;;;5017500;27;93980;-60
2023/09/03 12:34:49;;;;;;;5.68;2.03;;;;;;;;;;5013252;27;93120;-60
2023/09/03 12:37:15;;;;;;;3.25;2.30;;;;;;;;;;5017309;27;92861;-60
2023/09/03 12:39:42;;;;;;;2.65;1.70;;;;;;;;;;5019644;27;92563;-60
2023/09/03 12:42:09;;;;;;;4.55;1.63;;;;;;;;;;5012769;27;93277;-60
2023/09/03 12:44:36;;;;;;;4.53;1.45;;;;;;;;;;5010692;27;94806;-61
2023/09/03 12:47:05;;;;;;;1.58;1.20;;;;;;;;;;5019499;27;96644;-61
2023/09/03 12:49:31;;;;;;;3.45;1.10;;;;;;;;;;5012349;27;94396;-61
2023/09/03 12:51:58;;;;;;;3.60;1.17;;;;;;;;;;5017011;27;92461;-61
2023/09/03 12:54:25;;;;;;;4.95;1.65;;;;;;;;;;5012638;27;92428;-61
2023/09/03 12:56:53;;;;;;;3.55;2.28;;;;;;;;;;5016020;27;93757;-59
2023/09/03 12:59:20;;;;;;;4.32;1.55;;;;;;;;;;5012194;27;92769;-59
2023/09/03 13:01:46;;;;;;;4.15;1.67;;;;;;;;;;5015655;27;93189;-59
2023/09/03 13:04:13;;;;;;;5.82;2.40;;;;;;;;;;5012330;27;92541;-59
2023/09/03 13:06:40;;;;;;;3.30;1.80;;;;;;;;;;5012200;27;93125;-59
2023/09/03 13:09:08;;;;;;;5.80;2.00;;;;;;;;;;5009976;27;95782;-59
2023/09/03 13:11:35;;;;;;;2.22;1.60;;;;;;;;;;5012582;27;92419;-59
2023/09/03 13:14:01;;;;;;;1.52;1.40;;;;;;;;;;5011951;27;92785;-60
2023/09/03 13:16:28;;;;;;;4.97;1.50;;;;;;;;;;5014854;27;93310;-59
2023/09/03 13:18:55;;;;;;;2.03;1.52;;;;;;;;;;5012762;27;92713;-59
2023/09/03 13:21:21;;;;;;;4.13;1.42;;;;;;;;;;5012979;27;92924;-59
2023/09/03 13:23:48;;;;;;;3.80;1.20;;;;;;;;;;5021480;27;93463;-60
2023/09/03 13:26:14;;;;;;;3.15;1.20;;;;;;;;;;5012097;27;93147;-60
2023/09/03 13:28:41;;;;;;;4.78;1.10;;;;;;;;;;5020972;27;93515;-60
2023/09/03 13:31:08;;;;;;;4.13;1.10;;;;;;;;;;5014582;27;92579;-60
2023/09/03 13:33:35;;;;;;;1.35;0.80;;;;;;;;;;5011222;27;95017;-60
2023/09/03 13:36:03;;;;;;;1.13;1.00;;;;;;;;;;5019393;27;93645;-60
2023/09/03 13:38:31;;;;;;;1.48;1.10;;;;;;;;;;5015866;27;92849;-60
2023/09/03 13:40:58;;;;;;;1.98;1.40;;;;;;;;;;5017821;27;94592;-60
2023/09/03 13:43:24;;;;;;;13.40;1.00;;;;;;;;;;5018167;27;94834;-60
2023/09/03 13:45:58;;;;;;;2.38;0.90;;;;;;;;;;5017960;27;93157;-60
2023/09/03 13:48:25;;;;;;;4.97;0.80;;;;;;;;;;5013955;27;94126;-60
2023/09/03 13:50:51;;;;;;;2.13;1.10;;;;;;;;;;5014855;27;92796;-60
2023/09/03 13:53:18;;;;;;;0.98;0.80;;;;;;;;;;5014589;27;94611;-61
2023/09/03 13:55:45;;;;;;;3.40;1.00;;;;;;;;;;5012930;27;93841;-60
2023/09/03 13:58:11;;;;;;;3.42;0.90;;;;;;;;;;5014946;27;96244;-60
2023/09/03 14:00:38;;;;;;;2.88;0.95;;;;;;;;;;5013613;27;96638;-60
2023/09/03 14:03:05;;;;;;;1.55;0.70;;;;;;;;;;5013417;27;94216;-60
2023/09/03 14:05:31;;;;;;;1.50;0.70;;;;;;;;;;5014659;27;92975;-60
2023/09/03 14:07:58;;;;;;;1.08;0.77;;;;;;;;;;5017041;27;93640;-60
2023/09/03 14:10:24;;;;;;;1.02;0.80;;;;;;;;;;5014019;27;93298;-60
2023/09/03 14:12:50;;;;;;;1.90;0.80;;;;;;;;;;5013775;27;94040;-60
2023/09/03 14:15:17;;;;;;;1.92;0.90;;;;;;;;;;5014874;27;94492;-60
2023/09/03 14:17:43;;;;;;;5.65;0.73;;;;;;;;;;5017001;27;93675;-60
2023/09/03 14:20:10;;;;;;;1.88;0.70;;;;;;;;;;5013422;27;94239;-61
2023/09/03 14:22:37;;;;;;;1.50;0.85;;;;;;;;;;5016452;28;97651;-61
2023/09/03 14:25:03;;;;;;;2.60;1.00;;;;;;;;;;5013527;27;93696;-61
2023/09/03 14:27:30;;;;;;;2.13;0.60;;;;;;;;;;5012838;27;94437;-60
2023/09/03 14:29:56;;;;;;;0.60;0.60;;;;;;;;;;5015594;27;94917;-60
2023/09/03 14:32:22;;;;;;;0.82;0.82;;;;;;;;;;5019463;27;95640;-60
2023/09/03 14:34:49;;;;;;;1.77;0.82;;;;;;;;;;5012959;27;94803;-61
2023/09/03 14:37:15;;;;;;;3.08;0.90;;;;;;;;;;5017354;27;94003;-61
2023/09/03 14:39:42;;;;;;;1.23;0.70;;;;;;;;;;5013066;27;94523;-60